Time;durP1;ratioP1;P1;durP2;ratioP2;P2;SDS_P1;SDS_P2;PMS_P1;PMS_P2;Temp;Humidity;BMP_temperature;BMP_pressure;BME280_temperature;BME280_humidity;BME280_pressure;Samples;Min_cycle;Max_cycle;Signal;HPM_P1;HPM_P2
2020/12/24 00:01:55;;;;;;;;;;;11.40;78.50;;;;;;4752725;30;19929;-85
2020/12/24 00:04:21;;;;;;;;;;;11.40;78.50;;;;;;4769297;30;20027;-85
2020/12/24 00:06:46;;;;;;;;;;;11.40;78.40;;;;;;4741481;30;19918;-85
2020/12/24 00:09:12;;;;;;;;;;;11.40;78.50;;;;;;4755129;30;19918;-85
2020/12/24 00:11:37;;;;;;;;;;;11.30;78.40;;;;;;4755776;30;20009;-85
2020/12/24 00:14:03;;;;;;;;;;;11.30;78.50;;;;;;4740970;30;19928;-85
2020/12/24 00:16:29;;;;;;;;;;;11.30;78.60;;;;;;4741379;30;20332;-85
2020/12/24 00:18:54;;;;;;;;;;;11.30;78.60;;;;;;4772034;30;20415;-85
2020/12/24 00:21:20;;;;;;;;;;;11.30;78.10;;;;;;4755724;30;19987;-85
2020/12/24 00:23:45;;;;;;;;;;;11.20;78.30;;;;;;4756050;30;19933;-85
2020/12/24 00:26:11;;;;;;;;;;;11.20;78.20;;;;;;4740815;30;20343;-85
2020/12/24 00:28:36;;;;;;;;;;;11.20;78.10;;;;;;4771866;30;20385;-85
2020/12/24 00:31:02;;;;;;;;;;;11.20;77.80;;;;;;4771565;30;19918;-85
2020/12/24 00:33:27;;;;;;;;;;;11.10;77.80;;;;;;4771764;30;20165;-85
2020/12/24 00:35:53;;;;;;;;;;;11.10;77.90;;;;;;4755644;30;19918;-85
2020/12/24 00:38:19;;;;;;;;;;;11.10;78.60;;;;;;4773175;30;19929;-85
2020/12/24 00:40:44;;;;;;;;;;;11.10;78.00;;;;;;4758697;30;19921;-85
2020/12/24 00:43:10;;;;;;;;;;;11.10;78.10;;;;;;4758237;30;19964;-85
2020/12/24 00:45:35;;;;;;;;;;;11.10;78.20;;;;;;4755098;30;19922;-85
2020/12/24 00:48:01;;;;;;;;;;;11.10;78.00;;;;;;4755553;30;19918;-85
2020/12/24 00:50:26;;;;;;;;;;;11.00;77.90;;;;;;4755267;30;20413;-85
2020/12/24 00:52:52;;;;;;;;;;;11.00;77.90;;;;;;4770207;30;20013;-84
2020/12/24 00:55:17;;;;;;;;;;;11.00;77.90;;;;;;4754942;30;19977;-85
2020/12/24 00:57:43;;;;;;;;;;;11.00;77.80;;;;;;4766574;30;19926;-85
2020/12/24 01:00:08;;;;;;;;;;;10.90;77.70;;;;;;4772831;30;20372;-85
2020/12/24 01:02:34;;;;;;;;;;;10.90;77.90;;;;;;4773028;30;19964;-85
2020/12/24 01:05:00;;;;;;;;;;;10.90;77.90;;;;;;4758152;30;20004;-85
2020/12/24 01:07:25;;;;;;;;;;;10.90;78.00;;;;;;4788844;30;19914;-85
2020/12/24 01:09:51;;;;;;;;;;;10.90;77.80;;;;;;4758107;30;20020;-85
2020/12/24 01:12:16;;;;;;;;;;;10.80;77.90;;;;;;4757748;30;19928;-85
2020/12/24 01:14:43;;;;;;;;;;;10.80;78.10;;;;;;4772883;30;19926;-85
2020/12/24 01:17:08;;;;;;;;;;;10.80;78.10;;;;;;4771632;30;19918;-85
2020/12/24 01:19:34;;;;;;;;;;;10.80;78.10;;;;;;4757931;30;20395;-85
2020/12/24 01:21:59;;;;;;;;;;;10.80;78.00;;;;;;4772953;30;19918;-85
2020/12/24 01:24:25;;;;;;;;;;;10.70;78.00;;;;;;4788861;30;19929;-85
2020/12/24 01:26:51;;;;;;;;;;;10.70;78.00;;;;;;4772153;30;20291;-85
2020/12/24 01:29:16;;;;;;;;;;;10.70;77.80;;;;;;4772198;30;19940;-85
2020/12/24 01:31:45;;;;;;;;;;;10.70;77.70;;;;;;4772645;30;19921;-84
2020/12/24 01:34:11;;;;;;;;;;;10.60;77.80;;;;;;4788222;30;20364;-85
2020/12/24 01:36:37;;;;;;;;;;;10.60;77.80;;;;;;4772580;30;19925;-84
2020/12/24 01:39:02;;;;;;;;;;;10.60;77.90;;;;;;4772518;30;19924;-84
2020/12/24 01:41:28;;;;;;;;;;;10.60;78.00;;;;;;4772150;30;19927;-85
2020/12/24 01:43:54;;;;;;;;;;;10.60;78.10;;;;;;4772455;30;19986;-85
2020/12/24 01:46:19;;;;;;;;;;;10.60;78.20;;;;;;4772039;30;19929;-85
2020/12/24 01:48:45;;;;;;;;;;;10.60;78.20;;;;;;4757556;30;19940;-85
2020/12/24 01:51:12;;;;;;;;;;;10.60;78.30;;;;;;4757130;30;19922;-84
2020/12/24 01:53:38;;;;;;;;;;;10.60;78.30;;;;;;4771845;30;19930;-85
2020/12/24 01:56:03;;;;;;;;;;;10.50;78.30;;;;;;4771158;30;19922;-85
2020/12/24 01:58:29;;;;;;;;;;;10.50;78.40;;;;;;4754052;30;19922;-85
2020/12/24 02:00:54;;;;;;;;;;;10.50;78.40;;;;;;4771615;30;19920;-85
2020/12/24 02:03:20;;;;;;;;;;;10.50;78.40;;;;;;4769934;30;20389;-85
2020/12/24 02:05:45;;;;;;;;;;;10.50;78.40;;;;;;4739471;30;19975;-85
2020/12/24 02:08:11;;;;;;;;;;;10.50;78.40;;;;;;4769890;30;19957;-85
2020/12/24 02:10:37;;;;;;;;;;;10.50;78.40;;;;;;4754569;30;19925;-85
2020/12/24 02:13:02;;;;;;;;;;;10.50;78.50;;;;;;4753987;30;19995;-85
2020/12/24 02:15:28;;;;;;;;;;;10.40;78.50;;;;;;4760139;30;19925;-85
2020/12/24 02:17:53;;;;;;;;;;;10.40;78.60;;;;;;4753958;30;20297;-85
2020/12/24 02:20:19;;;;;;;;;;;10.50;78.80;;;;;;4738963;30;19929;-85
2020/12/24 02:22:45;;;;;;;;;;;10.40;78.80;;;;;;4769919;30;19918;-85
2020/12/24 02:25:10;;;;;;;;;;;10.40;79.50;;;;;;4753785;30;19926;-85
2020/12/24 02:27:36;;;;;;;;;;;10.50;79.00;;;;;;4739112;30;19918;-85
2020/12/24 02:30:02;;;;;;;;;;;10.40;78.90;;;;;;4769934;30;19921;-85
2020/12/24 02:32:28;;;;;;;;;;;10.40;79.00;;;;;;4754338;30;19921;-85
2020/12/24 02:34:55;;;;;;;;;;;10.40;79.10;;;;;;4753822;30;19930;-85
2020/12/24 02:37:22;;;;;;;;;;;10.40;79.20;;;;;;4769429;30;19922;-85
2020/12/24 02:39:48;;;;;;;;;;;10.50;79.30;;;;;;4769786;30;19918;-85
2020/12/24 02:42:13;;;;;;;;;;;10.40;79.30;;;;;;4753248;30;20369;-85
2020/12/24 02:44:39;;;;;;;;;;;10.40;79.30;;;;;;4753553;30;20021;-85
2020/12/24 02:47:04;;;;;;;;;;;10.40;79.40;;;;;;4738792;30;20102;-85
2020/12/24 02:49:30;;;;;;;;;;;10.40;79.40;;;;;;4753352;30;19921;-85
2020/12/24 02:51:55;;;;;;;;;;;10.40;79.50;;;;;;4753561;30;19953;-85
2020/12/24 02:54:21;;;;;;;;;;;10.40;79.50;;;;;;4729608;30;20400;-85
2020/12/24 02:56:46;;;;;;;;;;;10.30;79.50;;;;;;4734244;30;19930;-85
2020/12/24 02:59:12;;;;;;;;;;;10.40;79.70;;;;;;4732560;30;20282;-85
2020/12/24 03:01:37;;;;;;;;;;;10.40;79.70;;;;;;4723702;30;19930;-85
2020/12/24 03:04:03;;;;;;;;;;;10.40;79.70;;;;;;4732757;30;19929;-85
2020/12/24 03:06:28;;;;;;;;;;;10.30;79.70;;;;;;4747166;30;20286;-85
2020/12/24 03:08:54;;;;;;;;;;;10.30;79.70;;;;;;4733990;30;19919;-85
2020/12/24 03:11:19;;;;;;;;;;;10.30;79.70;;;;;;4732236;30;19922;-85
2020/12/24 03:13:45;;;;;;;;;;;10.30;79.70;;;;;;4732618;30;19926;-85
2020/12/24 03:16:10;;;;;;;;;;;10.30;79.70;;;;;;4747111;30;20406;-85
2020/12/24 03:18:36;;;;;;;;;;;10.30;79.70;;;;;;4747358;30;19919;-85
2020/12/24 03:21:01;;;;;;;;;;;10.30;79.70;;;;;;4732588;30;20365;-85
2020/12/24 03:23:27;;;;;;;;;;;10.30;79.70;;;;;;4731672;30;20003;-85
2020/12/24 03:25:52;;;;;;;;;;;10.30;79.70;;;;;;4747178;30;20278;-85
2020/12/24 03:28:18;;;;;;;;;;;10.30;79.70;;;;;;4732149;30;19922;-85
2020/12/24 03:30:43;;;;;;;;;;;10.30;79.70;;;;;;4735904;30;19999;-85
2020/12/24 03:33:09;;;;;;;;;;;10.20;79.60;;;;;;4750859;30;20020;-85
2020/12/24 03:35:34;;;;;;;;;;;10.20;79.70;;;;;;4750253;30;19922;-85
2020/12/24 03:38:00;;;;;;;;;;;10.20;79.60;;;;;;4735534;30;19999;-85
2020/12/24 03:40:25;;;;;;;;;;;10.20;79.60;;;;;;4749472;30;20289;-85
2020/12/24 03:42:51;;;;;;;;;;;10.20;79.50;;;;;;4749935;30;20345;-85
2020/12/24 03:45:16;;;;;;;;;;;10.20;79.60;;;;;;4734980;30;19972;-85
2020/12/24 03:47:42;;;;;;;;;;;10.10;79.50;;;;;;4749965;30;19918;-85
2020/12/24 03:50:08;;;;;;;;;;;10.10;79.60;;;;;;4735296;30;19925;-84
2020/12/24 03:52:33;;;;;;;;;;;10.10;79.60;;;;;;4734971;30;19922;-84
2020/12/24 03:54:59;;;;;;;;;;;10.10;79.70;;;;;;4774192;24;19930;-84
2020/12/24 03:57:24;;;;;;;;;;;10.10;79.70;;;;;;4768592;30;19914;-84
2020/12/24 03:59:50;;;;;;;;;;;10.10;79.70;;;;;;4738123;30;19921;-83
2020/12/24 04:02:15;;;;;;;;;;;10.10;79.70;;;;;;4752645;30;20017;-84
2020/12/24 04:04:41;;;;;;;;;;;10.10;79.70;;;;;;4752836;30;19914;-84
2020/12/24 04:07:06;;;;;;;;;;;10.10;79.70;;;;;;4752700;30;19972;-83
2020/12/24 04:09:32;;;;;;;;;;;10.10;79.70;;;;;;4737606;30;19918;-83
2020/12/24 04:11:57;;;;;;;;;;;10.10;80.30;;;;;;4738037;30;19918;-83
2020/12/24 04:14:22;;;;;;;;;;;10.10;79.70;;;;;;4752337;30;20279;-83
2020/12/24 04:16:48;;;;;;;;;;;10.10;79.70;;;;;;4752622;30;19921;-83
2020/12/24 04:19:13;;;;;;;;;;;10.10;79.80;;;;;;4752393;30;19914;-83
2020/12/24 04:21:39;;;;;;;;;;;10.10;79.80;;;;;;4737873;30;19918;-83
2020/12/24 04:24:04;;;;;;;;;;;10.10;79.80;;;;;;4738003;30;20045;-84
2020/12/24 04:26:30;;;;;;;;;;;10.10;79.80;;;;;;4752371;30;20438;-84
2020/12/24 04:28:56;;;;;;;;;;;10.10;79.80;;;;;;4737959;30;19925;-84
2020/12/24 04:31:21;;;;;;;;;;;10.10;79.80;;;;;;4737296;30;20008;-84
2020/12/24 04:33:47;;;;;;;;;;;10.10;79.80;;;;;;4737627;30;19930;-84
2020/12/24 04:36:13;;;;;;;;;;;10.10;79.80;;;;;;4737558;30;20408;-84
2020/12/24 04:38:39;;;;;;;;;;;10.10;79.80;;;;;;4768508;30;20381;-84
2020/12/24 04:41:04;;;;;;;;;;;10.10;79.80;;;;;;4752419;30;19977;-84
2020/12/24 04:43:32;;;;;;;;;;;10.10;79.90;;;;;;4737301;30;21576;-84
2020/12/24 04:45:57;;;;;;;;;;;10.10;79.80;;;;;;4737805;30;19976;-83
2020/12/24 04:48:23;;;;;;;;;;;10.10;79.90;;;;;;4752102;30;19922;-84
2020/12/24 04:50:50;;;;;;;;;;;10.10;79.90;;;;;;4768591;30;19949;-83
2020/12/24 04:53:15;;;;;;;;;;;10.10;79.90;;;;;;4770939;30;19937;-83
2020/12/24 04:55:41;;;;;;;;;;;10.10;79.90;;;;;;4740724;30;19922;-83
2020/12/24 04:58:08;;;;;;;;;;;10.00;79.80;;;;;;4771430;30;19964;-83
2020/12/24 05:00:34;;;;;;;;;;;10.00;79.80;;;;;;4754992;30;19953;-83
2020/12/24 05:03:02;;;;;;;;;;;10.00;79.90;;;;;;4771481;30;20440;-84
2020/12/24 05:05:28;;;;;;;;;;;10.00;79.90;;;;;;4754956;30;19914;-83
2020/12/24 05:07:53;;;;;;;;;;;10.00;79.90;;;;;;4755210;30;19921;-83
2020/12/24 05:10:19;;;;;;;;;;;10.00;79.90;;;;;;4754807;30;20404;-83
2020/12/24 05:12:44;;;;;;;;;;;10.00;79.90;;;;;;4755189;30;19917;-83
2020/12/24 05:15:24;;;;;;;;;;;10.00;79.90;;;;;;4755075;30;19925;-84
2020/12/24 05:17:49;;;;;;;;;;;10.00;80.00;;;;;;4755190;30;20009;-83
2020/12/24 05:20:15;;;;;;;;;;;10.00;80.00;;;;;;4754796;30;19926;-83
2020/12/24 05:22:40;;;;;;;;;;;10.00;80.00;;;;;;4740333;30;19926;-83
2020/12/24 05:25:10;;;;;;;;;;;10.00;80.00;;;;;;4740275;30;20365;-84
2020/12/24 05:27:36;;;;;;;;;;;10.00;79.90;;;;;;4754506;30;19914;-83
2020/12/24 05:30:02;;;;;;;;;;;10.00;80.00;;;;;;4754693;30;20032;-84
2020/12/24 05:32:28;;;;;;;;;;;10.00;80.00;;;;;;4754244;30;19967;-84
2020/12/24 05:35:08;;;;;;;;;;;10.00;80.00;;;;;;4739657;30;20296;-84
2020/12/24 05:37:34;;;;;;;;;;;10.00;80.00;;;;;;4770139;30;20061;-83
2020/12/24 05:40:16;;;;;;;;;;;10.00;80.10;;;;;;4769536;30;20004;-84
2020/12/24 05:42:48;;;;;;;;;;;9.90;80.10;;;;;;4754790;30;20384;-83
2020/12/24 05:45:21;;;;;;;;;;;10.00;80.20;;;;;;4754192;30;19929;-84
2020/12/24 05:47:49;;;;;;;;;;;10.00;80.40;;;;;;4754508;30;19922;-84
2020/12/24 05:50:21;;;;;;;;;;;10.00;80.20;;;;;;4754071;30;19944;-83
2020/12/24 05:53:01;;;;;;;;;;;10.00;80.20;;;;;;4754296;30;19957;-84
2020/12/24 05:55:27;;;;;;;;;;;10.00;80.20;;;;;;4770329;30;19921;-83
2020/12/24 05:57:55;;;;;;;;;;;10.00;80.20;;;;;;4739722;30;20411;-83
2020/12/24 06:00:21;;;;;;;;;;;10.00;80.20;;;;;;4769846;30;19966;-83
2020/12/24 06:02:53;;;;;;;;;;;10.00;80.20;;;;;;4753944;30;20000;-83
2020/12/24 06:05:23;;;;;;;;;;;10.00;80.20;;;;;;4770179;30;19933;-83
2020/12/24 06:08:03;;;;;;;;;;;9.90;80.20;;;;;;4754214;30;19914;-83
2020/12/24 06:10:43;;;;;;;;;;;10.00;80.30;;;;;;4753887;30;19914;-83
2020/12/24 06:13:14;;;;;;;;;;;10.00;80.20;;;;;;4753721;30;19914;-83
2020/12/24 06:15:43;;;;;;;;;;;10.00;80.20;;;;;;4754832;30;19914;-83
2020/12/24 06:18:10;;;;;;;;;;;10.00;80.20;;;;;;4754773;30;19914;-84
2020/12/24 06:20:37;;;;;;;;;;;10.00;80.20;;;;;;4770745;30;20272;-84
2020/12/24 06:23:03;;;;;;;;;;;10.00;80.20;;;;;;4755330;30;19922;-84
2020/12/24 06:25:29;;;;;;;;;;;10.00;80.20;;;;;;4754664;30;19966;-83
2020/12/24 06:27:56;;;;;;;;;;;10.00;80.20;;;;;;4770918;30;19914;-83
2020/12/24 06:30:23;;;;;;;;;;;9.90;80.20;;;;;;4770578;30;19980;-84
2020/12/24 06:32:50;;;;;;;;;;;9.90;80.20;;;;;;4753209;30;19918;-84
2020/12/24 06:35:34;;;;;;;;;;;9.90;80.20;;;;;;4754391;30;19918;-84
2020/12/24 06:38:00;;;;;;;;;;;9.90;80.20;;;;;;4770897;30;19957;-84
2020/12/24 06:40:39;;;;;;;;;;;9.90;80.20;;;;;;4745509;30;19976;-83
2020/12/24 06:43:05;;;;;;;;;;;9.90;80.20;;;;;;4747016;30;19924;-84
2020/12/24 06:45:33;;;;;;;;;;;9.90;80.20;;;;;;4738505;30;19976;-84
2020/12/24 06:48:16;;;;;;;;;;;9.90;80.20;;;;;;4761145;30;20369;-84
2020/12/24 06:50:42;;;;;;;;;;;9.90;80.30;;;;;;4749912;30;19925;-84
2020/12/24 06:53:23;;;;;;;;;;;9.90;80.30;;;;;;4749485;30;19923;-83
2020/12/24 06:56:16;;;;;;;;;;;9.90;80.30;;;;;;4733843;30;19918;-83
2020/12/24 06:58:45;;;;;;;;;;;9.90;80.30;;;;;;4741359;30;19924;-84
2020/12/24 07:01:20;;;;;;;;;;;9.80;80.30;;;;;;4752742;30;19925;-84
2020/12/24 07:03:47;;;;;;;;;;;9.80;80.30;;;;;;4769713;30;19918;-90
2020/12/24 07:06:13;;;;;;;;;;;9.90;80.40;;;;;;4753930;30;20119;-90
2020/12/24 07:08:38;;;;;;;;;;;9.80;80.30;;;;;;4753471;30;19921;-90
2020/12/24 07:11:04;;;;;;;;;;;9.80;80.40;;;;;;4753958;30;19913;-90
2020/12/24 07:13:29;;;;;;;;;;;9.80;80.40;;;;;;4769079;30;19924;-91
2020/12/24 07:15:55;;;;;;;;;;;9.80;80.40;;;;;;4753932;30;20364;-90
2020/12/24 07:18:21;;;;;;;;;;;9.80;80.40;;;;;;4753414;30;19944;-90
2020/12/24 07:20:49;;;;;;;;;;;9.80;80.50;;;;;;4760136;30;19918;-91
2020/12/24 07:23:15;;;;;;;;;;;9.80;80.50;;;;;;4753864;30;19976;-90
2020/12/24 07:25:44;;;;;;;;;;;9.80;80.50;;;;;;4753710;30;19918;-91
2020/12/24 07:28:13;;;;;;;;;;;9.80;80.50;;;;;;4741020;30;20399;-87
2020/12/24 07:30:39;;;;;;;;;;;9.80;80.50;;;;;;4763541;30;19982;-88
2020/12/24 07:33:04;;;;;;;;;;;9.80;80.50;;;;;;4755148;30;20012;-87
2020/12/24 07:35:30;;;;;;;;;;;9.80;80.50;;;;;;4750063;30;19945;-86
2020/12/24 07:37:55;;;;;;;;;;;9.70;80.60;;;;;;4737743;30;19918;-87
2020/12/24 07:40:29;;;;;;;;;;;9.60;80.70;;;;;;4738193;30;19918;-88
2020/12/24 07:43:05;;;;;;;;;;;9.50;78.80;;;;;;4753126;30;19914;-86
2020/12/24 07:45:30;;;;;;;;;;;9.30;78.00;;;;;;4779377;30;19925;-86
2020/12/24 07:47:56;;;;;;;;;;;9.10;77.80;;;;;;4739138;30;19921;-86
2020/12/24 07:50:28;;;;;;;;;;;9.00;78.70;;;;;;4737980;30;20385;-86
2020/12/24 07:52:54;;;;;;;;;;;8.90;78.70;;;;;;4751532;30;20383;-84
2020/12/24 07:55:19;;;;;;;;;;;8.80;79.10;;;;;;4752780;30;20034;-84
2020/12/24 07:57:44;;;;;;;;;;;8.70;79.00;;;;;;4752330;30;20288;-84
2020/12/24 08:00:10;;;;;;;;;;;8.70;79.30;;;;;;4752381;30;19973;-84
2020/12/24 08:02:36;;;;;;;;;;;8.60;79.30;;;;;;4737722;30;19926;-84
2020/12/24 08:05:01;;;;;;;;;;;8.50;79.00;;;;;;4763256;30;19926;-86
2020/12/24 08:07:27;;;;;;;;;;;8.40;79.10;;;;;;4760120;30;20077;-86
2020/12/24 08:09:52;;;;;;;;;;;8.30;79.20;;;;;;4752324;30;19922;-86
2020/12/24 08:12:22;;;;;;;;;;;8.30;79.50;;;;;;4752551;30;20289;-87
2020/12/24 08:14:48;;;;;;;;;;;8.20;79.20;;;;;;4752145;30;19925;-87
2020/12/24 08:17:40;;;;;;;;;;;8.20;79.50;;;;;;4738243;30;19936;-87
2020/12/24 08:20:06;;;;;;;;;;;8.10;79.70;;;;;;4766745;30;20012;-87
2020/12/24 08:22:42;;;;;;;;;;;8.00;79.50;;;;;;4768607;30;19918;-87
2020/12/24 08:25:08;;;;;;;;;;;8.00;79.70;;;;;;4769185;30;19933;-86
2020/12/24 08:27:34;;;;;;;;;;;7.90;79.70;;;;;;4738630;30;19934;-85
2020/12/24 08:30:00;;;;;;;;;;;7.90;79.70;;;;;;4769091;30;19914;-87
2020/12/24 08:32:26;;;;;;;;;;;7.70;79.90;;;;;;4755452;30;19922;-85
2020/12/24 08:34:52;;;;;;;;;;;7.70;80.10;;;;;;4770685;30;20048;-85
2020/12/24 08:37:27;;;;;;;;;;;7.60;80.10;;;;;;4770880;30;20012;-84
2020/12/24 08:39:53;;;;;;;;;;;7.50;80.50;;;;;;4755794;30;19948;-85
2020/12/24 08:42:21;;;;;;;;;;;7.40;80.50;;;;;;4770460;30;19996;-84
2020/12/24 08:44:53;;;;;;;;;;;7.40;80.70;;;;;;4771227;30;19928;-84
2020/12/24 08:47:19;;;;;;;;;;;7.30;80.90;;;;;;4754631;30;19922;-84
2020/12/24 08:49:47;;;;;;;;;;;7.30;81.00;;;;;;4740258;30;20464;-85
2020/12/24 08:52:23;;;;;;;;;;;7.30;81.80;;;;;;4770389;30;19947;-84
2020/12/24 08:54:58;;;;;;;;;;;7.30;81.30;;;;;;4754967;30;20013;-84
2020/12/24 08:57:24;;;;;;;;;;;7.20;81.10;;;;;;4753940;30;20265;-84
2020/12/24 08:59:56;;;;;;;;;;;7.30;81.10;;;;;;4771069;30;19918;-83
2020/12/24 09:02:23;;;;;;;;;;;7.30;81.10;;;;;;4754515;30;19918;-84
2020/12/24 09:04:52;;;;;;;;;;;7.30;81.10;;;;;;4755379;30;20293;-84
2020/12/24 09:07:44;;;;;;;;;;;7.30;81.10;;;;;;4754891;30;19919;-86
2020/12/24 09:10:11;;;;;;;;;;;7.30;81.20;;;;;;4760564;30;19918;-87
2020/12/24 09:12:37;;;;;;;;;;;7.30;81.10;;;;;;4770762;30;20019;-86
2020/12/24 09:15:05;;;;;;;;;;;7.30;81.10;;;;;;4762447;30;20358;-85
2020/12/24 09:17:30;;;;;;;;;;;7.30;81.10;;;;;;4769948;30;19928;-85
2020/12/24 09:19:59;;;;;;;;;;;7.30;81.10;;;;;;4768012;30;19918;-85
2020/12/24 09:22:25;;;;;;;;;;;7.30;81.10;;;;;;4753578;30;20400;-84
2020/12/24 09:24:50;;;;;;;;;;;7.30;81.00;;;;;;4739398;30;19926;-85
2020/12/24 09:27:16;;;;;;;;;;;7.30;80.90;;;;;;4754873;30;19922;-85
2020/12/24 09:29:42;;;;;;;;;;;7.30;80.80;;;;;;4738112;30;19929;-87
2020/12/24 09:32:07;;;;;;;;;;;7.40;80.80;;;;;;4735230;30;20009;-84
2020/12/24 09:34:33;;;;;;;;;;;7.40;80.90;;;;;;4722267;30;19926;-84
2020/12/24 09:36:58;;;;;;;;;;;7.40;80.90;;;;;;4763362;30;19918;-85
2020/12/24 09:39:24;;;;;;;;;;;7.40;80.80;;;;;;4756472;30;19983;-87
2020/12/24 09:41:49;;;;;;;;;;;7.40;80.90;;;;;;4754644;30;19972;-85
2020/12/24 09:44:15;;;;;;;;;;;7.30;80.90;;;;;;4767049;30;20280;-85
2020/12/24 09:46:41;;;;;;;;;;;7.30;81.00;;;;;;4737260;30;19926;-85
2020/12/24 09:49:07;;;;;;;;;;;7.30;81.00;;;;;;4754412;30;19956;-85
2020/12/24 09:51:35;;;;;;;;;;;7.20;81.00;;;;;;4747767;30;19973;-85
2020/12/24 09:54:01;;;;;;;;;;;7.20;81.10;;;;;;4762675;24;19945;-82
2020/12/24 09:56:27;;;;;;;;;;;7.20;81.20;;;;;;4733731;30;19919;-83
2020/12/24 09:58:52;;;;;;;;;;;7.20;81.20;;;;;;4742822;30;19918;-84
2020/12/24 10:01:18;;;;;;;;;;;7.20;81.30;;;;;;4753338;30;19922;-84
2020/12/24 10:03:44;;;;;;;;;;;7.20;81.30;;;;;;4736567;30;19948;-85
2020/12/24 10:06:09;;;;;;;;;;;7.20;81.30;;;;;;4737435;30;19918;-84
2020/12/24 10:08:35;;;;;;;;;;;7.20;81.30;;;;;;4737452;30;19918;-83
2020/12/24 10:11:00;;;;;;;;;;;7.20;81.50;;;;;;4753074;30;19914;-83
2020/12/24 10:13:26;;;;;;;;;;;7.20;81.50;;;;;;4733482;30;19930;-83
2020/12/24 10:15:51;;;;;;;;;;;7.10;81.50;;;;;;4733889;30;19954;-83
2020/12/24 10:18:17;;;;;;;;;;;7.10;81.60;;;;;;4737255;30;19971;-83
2020/12/24 10:20:42;;;;;;;;;;;7.10;81.60;;;;;;4738419;30;19926;-83
2020/12/24 10:23:10;;;;;;;;;;;7.10;81.60;;;;;;4736385;30;19929;-83
2020/12/24 10:25:37;;;;;;;;;;;7.20;81.70;;;;;;4748481;30;19922;-83
2020/12/24 10:28:03;;;;;;;;;;;7.10;81.80;;;;;;4735901;30;19930;-83
2020/12/24 10:30:28;;;;;;;;;;;7.10;81.80;;;;;;4753311;30;19914;-83
2020/12/24 10:32:54;;;;;;;;;;;7.10;82.10;;;;;;4722958;30;20369;-83
2020/12/24 10:35:19;;;;;;;;;;;7.10;82.20;;;;;;4737404;30;20282;-83
2020/12/24 10:37:45;;;;;;;;;;;7.10;82.20;;;;;;4736534;30;19949;-83
2020/12/24 10:40:10;;;;;;;;;;;7.10;82.30;;;;;;4722800;30;20008;-83
2020/12/24 10:42:38;;;;;;;;;;;7.10;82.30;;;;;;4751898;30;19914;-83
2020/12/24 10:45:04;;;;;;;;;;;7.10;82.30;;;;;;4751973;30;19922;-83
2020/12/24 10:47:29;;;;;;;;;;;7.10;82.20;;;;;;4750307;30;19918;-83
2020/12/24 10:49:55;;;;;;;;;;;7.10;82.20;;;;;;4752895;30;19914;-83
2020/12/24 10:52:21;;;;;;;;;;;7.10;82.30;;;;;;4751851;30;19968;-83
2020/12/24 10:54:46;;;;;;;;;;;7.10;82.40;;;;;;4769473;30;20028;-83
2020/12/24 10:57:12;;;;;;;;;;;7.10;82.30;;;;;;4734711;30;19922;-83
2020/12/24 10:59:37;;;;;;;;;;;7.10;82.30;;;;;;4737961;30;20004;-83
2020/12/24 11:02:03;;;;;;;;;;;7.10;82.30;;;;;;4738833;30;20266;-83
2020/12/24 11:04:29;;;;;;;;;;;7.10;82.30;;;;;;4736784;30;19918;-85
2020/12/24 11:06:55;;;;;;;;;;;7.10;82.30;;;;;;4751504;30;19926;-85
2020/12/24 11:09:21;;;;;;;;;;;7.10;82.30;;;;;;4739360;30;20365;-85
2020/12/24 11:11:46;;;;;;;;;;;7.10;82.20;;;;;;4739837;30;19922;-85
2020/12/24 11:14:12;;;;;;;;;;;7.10;82.30;;;;;;4747288;30;19922;-85
2020/12/24 11:16:37;;;;;;;;;;;7.10;82.40;;;;;;4774192;30;19917;-84
2020/12/24 11:19:03;;;;;;;;;;;7.20;82.30;;;;;;4757370;30;19971;-84
2020/12/24 11:21:30;;;;;;;;;;;7.20;82.30;;;;;;4776092;30;20000;-85
2020/12/24 11:23:55;;;;;;;;;;;7.20;82.30;;;;;;4769995;30;19925;-85
2020/12/24 11:26:24;;;;;;;;;;;7.20;82.30;;;;;;4772580;30;19922;-84
2020/12/24 11:28:51;;;;;;;;;;;7.20;82.30;;;;;;4762950;30;19918;-85
2020/12/24 11:31:36;;;;;;;;;;;7.20;82.20;;;;;;4770857;30;19914;-85
2020/12/24 11:34:03;;;;;;;;;;;7.30;82.20;;;;;;4770050;30;19929;-85
2020/12/24 11:36:28;;;;;;;;;;;7.30;82.30;;;;;;4740298;30;19936;-84
2020/12/24 11:38:54;;;;;;;;;;;7.30;82.30;;;;;;4754621;30;20417;-85
2020/12/24 11:41:21;;;;;;;;;;;7.30;82.20;;;;;;4754779;30;20293;-85
2020/12/24 11:43:47;;;;;;;;;;;7.30;82.10;;;;;;4774020;30;19920;-84
2020/12/24 11:46:12;;;;;;;;;;;7.30;82.10;;;;;;4782568;30;19914;-85
2020/12/24 11:48:41;;;;;;;;;;;7.30;82.00;;;;;;4755121;30;20451;-84
2020/12/24 11:51:07;;;;;;;;;;;7.40;82.10;;;;;;4770588;30;19984;-85
2020/12/24 11:53:32;;;;;;;;;;;7.30;82.10;;;;;;4749651;30;20374;-85
2020/12/24 11:55:58;;;;;;;;;;;7.30;82.20;;;;;;4734600;30;19918;-84
2020/12/24 11:58:24;;;;;;;;;;;7.30;82.20;;;;;;4736565;30;19919;-85
2020/12/24 12:00:49;;;;;;;;;;;7.40;82.20;;;;;;4753949;30;20003;-86
2020/12/24 12:03:15;;;;;;;;;;;7.40;82.10;;;;;;4739816;30;19922;-85
2020/12/24 12:05:41;;;;;;;;;;;7.40;82.00;;;;;;4755634;30;19954;-85
2020/12/24 12:08:06;;;;;;;;;;;7.40;82.10;;;;;;4739771;30;20000;-85
2020/12/24 12:10:32;;;;;;;;;;;7.40;82.40;;;;;;4739774;30;19986;-85
2020/12/24 12:12:57;;;;;;;;;;;7.40;82.30;;;;;;4739524;30;20340;-84
2020/12/24 12:15:23;;;;;;;;;;;7.40;82.40;;;;;;4755309;30;20362;-85
2020/12/24 12:17:48;;;;;;;;;;;7.50;82.60;;;;;;4754865;30;20021;-85
2020/12/24 12:20:14;;;;;;;;;;;7.40;82.60;;;;;;4747007;30;20443;-83
2020/12/24 12:22:39;;;;;;;;;;;7.40;82.90;;;;;;4751841;30;19918;-83
2020/12/24 12:25:05;;;;;;;;;;;7.40;83.00;;;;;;4723782;30;19933;-88
2020/12/24 12:27:30;;;;;;;;;;;7.40;83.60;;;;;;4735540;30;20439;-87
2020/12/24 12:29:55;;;;;;;;;;;7.40;83.00;;;;;;4738581;30;19929;-87
2020/12/24 12:32:21;;;;;;;;;;;7.40;83.10;;;;;;4753145;30;19919;-87
2020/12/24 12:34:48;;;;;;;;;;;7.40;83.10;;;;;;4749728;30;19918;-87
2020/12/24 12:37:15;;;;;;;;;;;7.50;83.20;;;;;;4734780;30;20329;-85
2020/12/24 12:39:40;;;;;;;;;;;7.50;83.10;;;;;;4753879;30;19918;-86
2020/12/24 12:42:06;;;;;;;;;;;7.50;83.40;;;;;;4754041;30;19967;-86
2020/12/24 12:44:31;;;;;;;;;;;7.40;83.60;;;;;;4737692;30;19926;-86
2020/12/24 12:46:57;;;;;;;;;;;7.50;83.50;;;;;;4738186;30;19918;-86
2020/12/24 12:49:22;;;;;;;;;;;7.50;83.40;;;;;;4735609;30;19926;-86
2020/12/24 12:51:50;;;;;;;;;;;7.50;83.30;;;;;;4736899;30;19926;-86
2020/12/24 12:54:15;;;;;;;;;;;7.50;83.10;;;;;;4739483;30;19938;-86
2020/12/24 12:56:42;;;;;;;;;;;7.50;83.20;;;;;;4753603;30;19926;-86
2020/12/24 12:59:08;;;;;;;;;;;7.60;83.20;;;;;;4754045;30;20412;-87
2020/12/24 13:01:33;;;;;;;;;;;7.60;83.10;;;;;;4753569;30;19923;-87
2020/12/24 13:03:59;;;;;;;;;;;7.60;83.10;;;;;;4737959;30;19918;-87
2020/12/24 13:06:24;;;;;;;;;;;7.60;83.00;;;;;;4737549;30;20337;-87
2020/12/24 13:08:50;;;;;;;;;;;7.70;83.10;;;;;;4737232;30;19922;-87
2020/12/24 13:11:16;;;;;;;;;;;7.60;83.00;;;;;;4722569;30;19922;-88
2020/12/24 13:13:41;;;;;;;;;;;7.70;83.10;;;;;;4736759;30;19925;-88
2020/12/24 13:16:07;;;;;;;;;;;7.70;83.60;;;;;;4723199;30;19918;-87
2020/12/24 13:18:33;;;;;;;;;;;7.70;83.70;;;;;;4736499;30;20341;-88
2020/12/24 13:21:00;;;;;;;;;;;7.70;83.60;;;;;;4723308;30;19958;-88
2020/12/24 13:23:26;;;;;;;;;;;7.70;83.40;;;;;;4753671;30;19925;-87
2020/12/24 13:25:52;;;;;;;;;;;7.70;83.40;;;;;;4736797;30;19966;-87
2020/12/24 13:28:17;;;;;;;;;;;7.80;83.30;;;;;;4722897;30;19926;-87
2020/12/24 13:30:43;;;;;;;;;;;7.80;83.20;;;;;;4737188;30;20370;-88
2020/12/24 13:33:08;;;;;;;;;;;7.90;83.10;;;;;;4742121;30;19925;-87
2020/12/24 13:35:34;;;;;;;;;;;7.90;83.00;;;;;;4741057;30;19960;-87
2020/12/24 13:37:59;;;;;;;;;;;7.90;83.10;;;;;;4740206;30;19925;-87
2020/12/24 13:40:25;;;;;;;;;;;7.90;83.10;;;;;;4737992;30;19918;-86
2020/12/24 13:42:50;;;;;;;;;;;7.90;83.00;;;;;;4723630;30;19926;-87
2020/12/24 13:45:16;;;;;;;;;;;7.90;83.00;;;;;;4737587;30;20416;-85
2020/12/24 13:47:42;;;;;;;;;;;8.00;83.00;;;;;;4739517;30;19929;-86
2020/12/24 13:50:07;;;;;;;;;;;8.00;83.10;;;;;;4737764;30;19940;-86
2020/12/24 13:52:33;;;;;;;;;;;8.00;83.10;;;;;;4719015;30;19927;-86
2020/12/24 13:54:58;;;;;;;;;;;8.00;83.10;;;;;;4733826;30;19926;-86
2020/12/24 13:57:24;;;;;;;;;;;8.00;83.10;;;;;;4752282;30;19918;-86
2020/12/24 13:59:50;;;;;;;;;;;8.00;83.60;;;;;;4722240;30;19953;-86
2020/12/24 14:02:15;;;;;;;;;;;8.00;83.00;;;;;;4736491;30;20069;-86
2020/12/24 14:04:41;;;;;;;;;;;8.10;83.00;;;;;;4722107;30;19922;-86
2020/12/24 14:07:06;;;;;;;;;;;8.10;82.90;;;;;;4726267;30;19949;-86
2020/12/24 14:09:32;;;;;;;;;;;8.10;82.90;;;;;;4714709;30;19919;-86
2020/12/24 14:11:57;;;;;;;;;;;8.10;83.50;;;;;;4712435;30;20013;-86
2020/12/24 14:14:23;;;;;;;;;;;8.10;82.90;;;;;;4731643;30;20005;-87
2020/12/24 14:16:49;;;;;;;;;;;8.10;82.80;;;;;;4725414;30;19935;-86
2020/12/24 14:19:15;;;;;;;;;;;8.10;82.80;;;;;;4748601;30;20335;-86
2020/12/24 14:21:42;;;;;;;;;;;8.10;82.70;;;;;;4735274;30;20421;-86